createdAt,value
2022-10-01T00:00:26.162Z,0
2022-10-01T00:01:27.931Z,0.17
2022-10-01T00:02:29.706Z,0.07
2022-10-01T00:03:31.873Z,0
2022-10-01T00:04:33.754Z,0
2022-10-01T00:05:35.738Z,0
2022-10-01T00:06:37.714Z,0
2022-10-01T00:07:39.953Z,0.5
2022-10-01T00:08:41.554Z,0
2022-10-01T00:09:43.554Z,0
2022-10-01T00:10:46.013Z,0
2022-10-01T00:11:47.793Z,0
2022-10-01T00:12:49.614Z,0
2022-10-01T00:13:54.673Z,0.12
2022-10-01T00:14:56.794Z,0.2
2022-10-01T00:15:58.993Z,0.06
2022-10-01T00:17:00.985Z,0.22
2022-10-01T00:18:03.354Z,0.05
2022-10-01T00:19:05.654Z,0.1
2022-10-01T00:20:14.096Z,0.16
2022-10-01T00:21:09.685Z,0.06
2022-10-01T00:22:11.635Z,0.3
2022-10-01T00:23:13.634Z,0.24
2022-10-01T00:24:15.614Z,0
2022-10-01T00:25:17.873Z,0
2022-10-01T00:26:19.753Z,0.13
2022-10-01T00:27:21.679Z,0
2022-10-01T00:28:23.788Z,0
2022-10-01T00:29:25.835Z,0
2022-10-01T00:30:27.594Z,0
2022-10-01T00:31:29.872Z,0.65
2022-10-01T00:32:31.873Z,0.17
2022-10-01T00:33:33.894Z,0.11
2022-10-01T00:34:35.814Z,0.21
2022-10-01T00:35:37.799Z,0.06
2022-10-01T00:36:39.717Z,0
2022-10-01T00:37:42.061Z,0
2022-10-01T00:38:44.021Z,0
2022-10-01T00:39:45.594Z,0.22
2022-10-01T00:40:48.015Z,0.13
2022-10-01T00:41:49.596Z,0
2022-10-01T00:42:51.553Z,0
2022-10-01T00:43:53.935Z,0
2022-10-01T00:44:55.874Z,0
2022-10-01T00:45:58.116Z,0
2022-10-01T00:46:59.902Z,0
2022-10-01T00:48:01.915Z,0.06
2022-10-01T00:49:03.962Z,0
2022-10-01T00:50:05.674Z,0.12
2022-10-01T00:51:07.793Z,0.44
2022-10-01T00:52:09.758Z,0.05
2022-10-01T00:53:11.997Z,0
2022-10-01T00:54:13.854Z,0
2022-10-01T00:55:15.816Z,0
2022-10-01T00:56:17.774Z,0.23
2022-10-01T00:57:19.793Z,0.23
2022-10-01T00:58:21.553Z,0
2022-10-01T00:59:23.694Z,0
2022-10-01T01:03:43.815Z,0
2022-10-01T01:04:45.716Z,0
2022-10-01T01:05:47.876Z,0
2022-10-01T01:06:49.895Z,0.26
2022-10-01T01:07:51.938Z,0
2022-10-01T01:08:53.777Z,0
2022-10-01T01:09:55.860Z,0
2022-10-01T01:10:57.656Z,0
2022-10-01T01:11:59.955Z,0
2022-10-01T01:13:01.795Z,0
2022-10-01T01:14:03.937Z,0
2022-10-01T01:15:05.814Z,0
2022-10-01T01:16:07.902Z,0.32
2022-10-01T01:17:09.642Z,0
2022-10-01T01:18:12.006Z,0
2022-10-01T01:19:13.795Z,0
2022-10-01T01:20:16.138Z,0
2022-10-01T01:21:18.215Z,0
2022-10-01T01:22:20.555Z,0
2022-10-01T01:23:22.647Z,0
2022-10-01T01:24:24.874Z,0
2022-10-01T01:25:26.895Z,0
2022-10-01T01:26:28.835Z,0
2022-10-01T01:27:30.874Z,0
2022-10-01T01:28:33.054Z,0
2022-10-01T01:29:34.801Z,0
2022-10-01T01:30:36.717Z,0
2022-10-01T01:31:38.835Z,0
2022-10-01T01:32:40.843Z,0
2022-10-01T01:33:42.872Z,0
2022-10-01T01:34:44.614Z,0
2022-10-01T01:35:46.678Z,0
2022-10-01T01:36:48.795Z,0
2022-10-01T01:37:50.715Z,0
2022-10-01T01:38:52.687Z,0
2022-10-01T01:39:54.957Z,0
2022-10-01T01:40:56.883Z,0
2022-10-01T01:41:58.752Z,0
2022-10-01T01:43:00.875Z,0
2022-10-01T01:44:02.674Z,0
2022-10-01T01:45:04.934Z,0.12
2022-10-01T01:46:06.815Z,0
2022-10-01T01:47:08.553Z,0
2022-10-01T01:48:13.607Z,0
2022-10-01T01:49:15.775Z,0
2022-10-01T01:50:17.574Z,0
2022-10-01T01:51:19.898Z,0
2022-10-01T01:52:21.995Z,0
2022-10-01T01:53:24.058Z,0
2022-10-01T01:54:25.860Z,0
2022-10-01T01:55:27.575Z,0
2022-10-01T01:56:29.674Z,0
2022-10-01T01:57:31.696Z,0
2022-10-01T01:58:33.736Z,0
2022-10-01T01:59:35.936Z,0
2022-10-01T02:00:38.315Z,0
2022-10-01T02:01:39.856Z,0
2022-10-01T02:02:41.630Z,0
2022-10-01T02:03:43.637Z,0
2022-10-01T02:04:45.834Z,0
2022-10-01T02:05:47.897Z,0
2022-10-01T02:06:49.750Z,0
2022-10-01T02:07:52.057Z,0
2022-10-01T02:08:53.755Z,0
2022-10-01T02:09:55.919Z,0
2022-10-01T02:10:58.124Z,0
2022-10-01T02:12:00.117Z,0
2022-10-01T02:13:02.295Z,0
2022-10-01T02:14:05.139Z,0
2022-10-01T02:15:07.015Z,0
2022-10-01T02:16:09.153Z,0
2022-10-01T02:17:10.814Z,0
2022-10-01T02:18:12.906Z,0
2022-10-01T02:19:15.134Z,0
2022-10-01T02:20:16.925Z,0
2022-10-01T02:21:19.454Z,0
2022-10-01T02:22:21.975Z,0
2022-10-01T02:23:24.075Z,0
2022-10-01T02:24:25.943Z,0
2022-10-01T02:25:28.377Z,0
2022-10-01T02:26:31.510Z,0
2022-10-01T02:27:34.015Z,0
2022-10-01T02:28:35.981Z,0
2022-10-01T02:29:38.299Z,0
2022-10-01T02:30:41.102Z,0
2022-10-01T02:31:42.870Z,0
2022-10-01T02:32:44.900Z,0
2022-10-01T02:33:47.515Z,0
2022-10-01T02:34:49.837Z,0
2022-10-01T02:35:52.018Z,0
2022-10-01T02:36:53.854Z,0
2022-10-01T02:37:56.002Z,0
2022-10-01T02:38:58.043Z,0
2022-10-01T02:39:59.936Z,0
2022-10-01T02:41:02.042Z,0
2022-10-01T02:42:04.214Z,0
2022-10-01T02:43:05.594Z,0
2022-10-01T02:44:07.887Z,0
2022-10-01T02:45:09.855Z,0
2022-10-01T02:46:12.378Z,0
2022-10-01T02:47:13.676Z,0
2022-10-01T02:48:16.102Z,0
2022-10-01T02:49:19.076Z,0
2022-10-01T02:50:21.095Z,0
2022-10-01T02:51:23.154Z,0
2022-10-01T02:52:24.955Z,0
2022-10-01T02:53:26.615Z,0
2022-10-01T02:54:28.875Z,0
2022-10-01T02:55:31.126Z,0
2022-10-01T02:56:32.697Z,0
2022-10-01T02:57:35.038Z,0
2022-10-01T02:58:37.517Z,0
2022-10-01T02:59:39.854Z,0
2022-10-01T03:00:42.114Z,0
2022-10-01T03:01:44.510Z,0
2022-10-01T03:02:47.111Z,0
2022-10-01T03:03:49.635Z,0
2022-10-01T03:04:52.635Z,0
2022-10-01T03:05:55.063Z,0
2022-10-01T03:06:56.835Z,0
2022-10-01T03:07:59.063Z,0
2022-10-01T03:09:00.756Z,0
2022-10-01T03:10:03.074Z,0
2022-10-01T03:11:04.694Z,0
2022-10-01T03:12:06.902Z,0
2022-10-01T03:13:08.597Z,0
2022-10-01T03:14:11.314Z,0
2022-10-01T03:15:13.975Z,0
2022-10-01T03:16:16.151Z,0
2022-10-01T03:17:17.816Z,0
2022-10-01T03:18:19.755Z,0
2022-10-01T03:19:21.916Z,0
2022-10-01T03:20:23.835Z,0
2022-10-01T03:21:25.923Z,0
2022-10-01T03:22:27.918Z,0
2022-10-01T03:23:30.134Z,0
2022-10-01T03:24:31.995Z,0
2022-10-01T03:25:33.816Z,0
2022-10-01T03:26:36.156Z,0
2022-10-01T03:27:37.979Z,0
2022-10-01T03:28:39.995Z,0
2022-10-01T03:29:41.962Z,0
2022-10-01T03:30:46.575Z,0
2022-10-01T03:31:48.863Z,0
2022-10-01T03:32:50.974Z,0
2022-10-01T03:33:53.253Z,0
2022-10-01T03:34:54.874Z,0
2022-10-01T03:35:56.835Z,0
2022-10-01T03:36:58.894Z,0
2022-10-01T03:38:00.787Z,0
2022-10-01T03:39:02.874Z,0
2022-10-01T03:40:05.034Z,0
2022-10-01T03:41:06.755Z,0
2022-10-01T03:42:08.760Z,0
2022-10-01T03:43:11.178Z,0
2022-10-01T03:44:12.858Z,0
2022-10-01T03:45:15.078Z,0
2022-10-01T03:46:16.837Z,0
2022-10-01T03:47:18.822Z,0
2022-10-01T03:48:21.022Z,0
2022-10-01T03:49:23.740Z,0
2022-10-01T03:50:25.814Z,0
2022-10-01T03:51:27.655Z,0
2022-10-01T03:52:29.755Z,0
2022-10-01T03:53:32.398Z,0
2022-10-01T03:54:35.063Z,0
2022-10-01T03:55:36.935Z,0
2022-10-01T03:56:38.735Z,0
2022-10-01T03:57:41.295Z,0
2022-10-01T03:58:42.908Z,0
2022-10-01T03:59:45.483Z,0
2022-10-01T04:00:48.016Z,0
2022-10-01T04:01:52.988Z,0
2022-10-01T04:02:55.015Z,0
2022-10-01T04:03:56.953Z,0
2022-10-01T04:04:58.814Z,0
2022-10-01T04:06:00.776Z,0
2022-10-01T04:07:02.935Z,0
2022-10-01T04:08:05.176Z,0
2022-10-01T04:09:06.975Z,0
2022-10-01T04:10:08.856Z,0
2022-10-01T04:11:10.737Z,0.07
2022-10-01T04:12:13.194Z,0
2022-10-01T04:13:14.737Z,0
2022-10-01T04:14:19.327Z,0
2022-10-01T04:15:21.534Z,0
2022-10-01T04:16:24.048Z,0
2022-10-01T04:17:26.074Z,0.06
2022-10-01T04:18:28.043Z,0
2022-10-01T04:19:30.335Z,0
2022-10-01T04:20:33.015Z,0
2022-10-01T04:21:35.307Z,0.04
2022-10-01T04:22:36.916Z,0.09
2022-10-01T04:23:38.854Z,0
2022-10-01T04:24:41.008Z,0
2022-10-01T04:25:42.957Z,0
2022-10-01T04:26:45.061Z,0.08
2022-10-01T04:27:47.191Z,0
2022-10-01T04:28:49.134Z,0.24
2022-10-01T04:29:50.918Z,0
2022-10-01T04:30:52.716Z,0
2022-10-01T04:31:54.967Z,0.24
2022-10-01T04:32:56.978Z,0
2022-10-01T04:33:58.874Z,0.23
2022-10-01T04:35:00.954Z,0
2022-10-01T04:36:03.155Z,0
2022-10-01T04:37:04.775Z,0
2022-10-01T04:38:06.855Z,0
2022-10-01T04:39:08.895Z,0.1
2022-10-01T04:40:11.036Z,0
2022-10-01T04:41:13.055Z,0
2022-10-01T04:42:15.052Z,0
2022-10-01T04:43:16.916Z,0
2022-10-01T04:44:19.155Z,0
2022-10-01T04:45:21.179Z,0
2022-10-01T04:46:23.337Z,0
2022-10-01T04:47:24.995Z,0
2022-10-01T04:48:27.234Z,0
2022-10-01T04:49:28.843Z,0
2022-10-01T04:50:30.694Z,0.1
2022-10-01T04:51:33.193Z,0
2022-10-01T04:52:35.359Z,0
2022-10-01T04:53:36.779Z,0.1
2022-10-01T04:54:39.074Z,0
2022-10-01T04:55:41.381Z,0
2022-10-01T04:56:43.879Z,0.13
2022-10-01T04:57:46.402Z,0.08
2022-10-01T04:58:49.055Z,0
2022-10-01T04:59:52.995Z,0.17
2022-10-01T05:00:58.489Z,0.05
2022-10-01T05:01:57.470Z,0.13
2022-10-01T05:02:59.995Z,0.11
2022-10-01T05:04:02.554Z,0
2022-10-01T05:05:05.716Z,0.09
2022-10-01T05:06:08.075Z,0.17
2022-10-01T05:07:10.162Z,0.13
2022-10-01T05:08:12.041Z,0.26
2022-10-01T05:09:14.363Z,0.43
2022-10-01T05:10:17.634Z,0
2022-10-01T05:11:19.940Z,0.26
2022-10-01T05:12:24.522Z,0
2022-10-01T05:13:24.414Z,0.12
2022-10-01T05:14:28.294Z,0.1
2022-10-01T05:15:30.962Z,0
2022-10-01T05:16:33.272Z,0
2022-10-01T05:17:35.039Z,0.07
2022-10-01T05:18:37.995Z,0.07
2022-10-01T05:19:40.355Z,0
2022-10-01T05:20:42.455Z,0.24
2022-10-01T05:21:44.845Z,0
2022-10-01T05:22:47.315Z,0
2022-10-01T05:23:49.074Z,0.09
2022-10-01T05:24:51.123Z,0
2022-10-01T05:25:52.994Z,0
2022-10-01T05:26:55.097Z,0.15
2022-10-01T05:27:57.181Z,0.1
2022-10-01T05:28:59.115Z,0.11
2022-10-01T05:30:00.975Z,0
2022-10-01T05:31:03.132Z,0
2022-10-01T05:32:05.758Z,0
2022-10-01T05:33:08.014Z,0
2022-10-01T05:34:10.315Z,0.11
2022-10-01T05:35:12.671Z,0
2022-10-01T05:36:15.123Z,0
2022-10-01T05:37:17.375Z,0
2022-10-01T05:38:19.117Z,0
2022-10-01T05:39:21.218Z,0
2022-10-01T05:40:23.439Z,0
2022-10-01T05:41:26.475Z,0
2022-10-01T05:42:29.274Z,0
2022-10-01T05:43:31.066Z,0
2022-10-01T05:44:35.415Z,0
2022-10-01T05:45:36.962Z,0.06
2022-10-01T05:46:39.297Z,0
2022-10-01T05:47:41.378Z,0.16
2022-10-01T05:48:43.134Z,0.17
2022-10-01T05:49:44.775Z,0
2022-10-01T05:50:47.434Z,0
2022-10-01T05:51:48.735Z,0
2022-10-01T05:52:50.854Z,0
2022-10-01T05:53:52.935Z,0
2022-10-01T05:54:55.155Z,0.11
2022-10-01T05:55:57.086Z,0.06
2022-10-01T05:56:59.643Z,0.07
2022-10-01T05:58:02.043Z,0
2022-10-01T05:59:04.503Z,0.16
2022-10-01T06:00:07.254Z,0
2022-10-01T06:01:08.802Z,0.19
2022-10-01T06:02:11.320Z,0.2
2022-10-01T06:03:13.183Z,0
2022-10-01T06:04:14.874Z,0.26
2022-10-01T06:05:17.135Z,0.35
2022-10-01T06:06:20.086Z,0.28
2022-10-01T06:07:22.675Z,0.16
2022-10-01T06:08:25.455Z,0.25
2022-10-01T06:09:28.011Z,0
2022-10-01T06:10:30.055Z,0.15
2022-10-01T06:11:33.143Z,0
2022-10-01T06:12:35.294Z,0.08
2022-10-01T06:13:37.837Z,0.13
2022-10-01T06:14:39.910Z,0.39
2022-10-01T06:15:41.795Z,0.32
2022-10-01T06:16:43.952Z,0.47
2022-10-01T06:17:46.395Z,0.27
2022-10-01T06:18:49.418Z,0.08
2022-10-01T06:19:52.494Z,0.2
2022-10-01T06:20:55.394Z,0.2
2022-10-01T06:21:58.371Z,0.21
2022-10-01T06:23:01.198Z,0.1
2022-10-01T06:24:03.260Z,0.09
2022-10-01T06:25:04.921Z,0.14
2022-10-01T06:26:07.382Z,0.27
2022-10-01T06:27:09.684Z,0.6
2022-10-01T06:28:12.044Z,0.55
2022-10-01T06:29:13.935Z,0
2022-10-01T06:30:15.856Z,0
2022-10-01T06:31:18.214Z,0.28
2022-10-01T06:32:20.296Z,0.37
2022-10-01T06:33:21.919Z,0.37
2022-10-01T06:34:24.317Z,0.18
2022-10-01T06:35:26.162Z,0
2022-10-01T06:36:28.205Z,0.23
2022-10-01T06:37:30.354Z,0.22
2022-10-01T06:38:32.014Z,0.29
2022-10-01T06:39:34.114Z,0.25
2022-10-01T06:40:38.800Z,0.14
2022-10-01T06:41:41.215Z,0.56
2022-10-01T06:42:43.034Z,0.09
2022-10-01T06:43:45.302Z,0
2022-10-01T06:44:47.594Z,0.05
2022-10-01T06:45:50.282Z,0.25
2022-10-01T06:46:51.916Z,0.28
2022-10-01T06:47:54.115Z,0.62
2022-10-01T06:48:56.337Z,0.15
2022-10-01T06:49:58.200Z,0.25
2022-10-01T06:50:59.945Z,0.18
2022-10-01T06:52:02.451Z,0.15
2022-10-01T06:53:04.074Z,0.68
2022-10-01T06:54:06.139Z,0.23
2022-10-01T06:55:08.116Z,0.13
2022-10-01T06:56:10.655Z,0.47
2022-10-01T06:57:12.891Z,0.29
2022-10-01T06:58:14.914Z,0.27
2022-10-01T06:59:19.985Z,0.72
2022-10-01T07:00:22.090Z,0.5
2022-10-01T07:01:24.722Z,0.32
2022-10-01T07:02:27.210Z,0.59
2022-10-01T07:03:29.454Z,0.26
2022-10-01T07:04:32.557Z,0.45
2022-10-01T07:05:35.279Z,0.11
2022-10-01T07:06:37.156Z,0.82
2022-10-01T07:07:39.395Z,0.57
2022-10-01T07:08:42.580Z,0.46
2022-10-01T07:09:45.682Z,0.36
2022-10-01T07:10:48.293Z,0.19
2022-10-01T07:11:50.450Z,0.29
2022-10-01T07:12:53.596Z,0.37
2022-10-01T07:13:55.958Z,0
2022-10-01T07:14:57.976Z,0.23
2022-10-01T07:16:00.155Z,0.13
2022-10-01T07:17:02.134Z,0.32
2022-10-01T07:18:04.155Z,0.27
2022-10-01T07:19:06.335Z,0.37
2022-10-01T07:20:08.321Z,0.67
2022-10-01T07:21:10.499Z,0.29
2022-10-01T07:22:12.322Z,0.29
2022-10-01T07:23:14.615Z,0.41
2022-10-01T07:24:17.934Z,0.3
2022-10-01T07:25:20.387Z,0.66
2022-10-01T07:26:23.158Z,0.33
2022-10-01T07:27:25.734Z,0.64
2022-10-01T07:28:28.885Z,0.71
2022-10-01T07:29:31.556Z,0.48
2022-10-01T07:30:34.870Z,0.59
2022-10-01T07:31:37.850Z,0.14
2022-10-01T07:32:39.348Z,0.52
2022-10-01T07:33:42.018Z,0.78
2022-10-01T07:34:44.215Z,0.89
2022-10-01T07:35:46.536Z,0.68
2022-10-01T07:36:49.314Z,0.24
2022-10-01T07:37:51.286Z,0.65
2022-10-01T07:38:54.557Z,0.64
2022-10-01T07:39:57.395Z,0.76
2022-10-01T07:40:59.588Z,1.08
2022-10-01T07:42:02.534Z,0.75
2022-10-01T07:43:05.231Z,0.64
2022-10-01T07:44:08.615Z,0.45
2022-10-01T07:45:11.815Z,0.45
2022-10-01T07:46:15.058Z,0.56
2022-10-01T07:47:17.820Z,0.37
2022-10-01T07:48:20.716Z,0.53
2022-10-01T07:49:23.676Z,0.55
2022-10-01T07:50:26.873Z,0.08
2022-10-01T07:51:30.392Z,0.3
2022-10-01T07:52:32.558Z,0.92
2022-10-01T07:53:35.614Z,0.3
2022-10-01T07:54:37.795Z,0.5
2022-10-01T07:55:41.016Z,0.32
2022-10-01T07:56:44.540Z,0.33
2022-10-01T07:57:47.283Z,0.49
2022-10-01T07:58:49.775Z,0.53
2022-10-01T07:59:55.619Z,0.27
2022-10-01T08:00:54.839Z,0.12
2022-10-01T08:01:57.312Z,0.9
2022-10-01T08:03:00.724Z,0.04
2022-10-01T08:04:04.201Z,0.67
2022-10-01T08:05:06.790Z,0.57
2022-10-01T08:06:12.694Z,0.49
2022-10-01T08:07:15.657Z,1.09
2022-10-01T08:08:18.972Z,0.69
2022-10-01T08:09:21.928Z,0.58
2022-10-01T08:10:24.835Z,1.23
2022-10-01T08:11:27.566Z,0.53
2022-10-01T08:12:30.654Z,0.66
2022-10-01T08:13:33.844Z,0
2022-10-01T08:14:37.198Z,0.4
2022-10-01T08:15:39.354Z,0.62
2022-10-01T08:16:41.928Z,0.15
2022-10-01T08:17:44.876Z,0.69
2022-10-01T08:18:48.490Z,0.55
2022-10-01T08:19:51.855Z,0.7
2022-10-01T08:20:55.001Z,0.79
2022-10-01T08:21:58.532Z,1.26
2022-10-01T08:23:01.354Z,0.81
2022-10-01T08:24:05.064Z,0.85
2022-10-01T08:25:07.363Z,0.68
2022-10-01T08:26:09.256Z,0.58
2022-10-01T08:27:11.793Z,0.84
2022-10-01T08:28:14.424Z,0.37
2022-10-01T08:29:17.957Z,0.4
2022-10-01T08:30:21.104Z,0.55
2022-10-01T08:31:23.910Z,1.18
2022-10-01T08:32:26.475Z,1.3
2022-10-01T08:33:29.641Z,0.08
2022-10-01T08:34:32.374Z,0.07
2022-10-01T08:35:35.734Z,0.32
2022-10-01T08:36:39.194Z,0.48
2022-10-01T08:37:41.654Z,0.26
2022-10-01T08:38:44.658Z,0.71
2022-10-01T08:39:47.670Z,0.18
2022-10-01T08:40:50.614Z,0.12
2022-10-01T08:41:53.980Z,0.4
2022-10-01T08:42:56.902Z,0.83
2022-10-01T08:43:59.374Z,0.61
2022-10-01T08:45:01.793Z,0.16
2022-10-01T08:46:04.744Z,0.26
2022-10-01T08:47:07.692Z,0.79
2022-10-01T08:48:10.664Z,0.29
2022-10-01T08:49:13.914Z,1
2022-10-01T08:50:16.474Z,0.55
2022-10-01T08:51:19.395Z,0.57
2022-10-01T08:52:22.474Z,0.63
2022-10-01T08:53:25.354Z,0.35
2022-10-01T08:54:27.954Z,0.83
2022-10-01T08:55:30.786Z,0.59
2022-10-01T08:56:34.420Z,0.24
2022-10-01T08:57:36.965Z,0.19
2022-10-01T08:58:39.706Z,0.52
2022-10-01T08:59:42.934Z,0.75
2022-10-01T09:00:45.779Z,0.58
2022-10-01T09:01:48.754Z,0.22
2022-10-01T09:02:51.421Z,0.06
2022-10-01T09:03:53.377Z,0.38
2022-10-01T09:04:58.988Z,0.33
2022-10-01T09:05:57.337Z,1.28
2022-10-01T09:06:59.313Z,1.38
2022-10-01T09:08:02.234Z,0.06
2022-10-01T09:09:04.238Z,0.31
2022-10-01T09:10:06.895Z,0.24
2022-10-01T09:11:09.301Z,0.32
2022-10-01T09:12:11.208Z,0.26
2022-10-01T09:13:13.275Z,0.74
2022-10-01T09:14:15.653Z,0.64
2022-10-01T09:15:18.915Z,0.72
2022-10-01T09:16:22.083Z,0.56
2022-10-01T09:17:25.616Z,0.39
2022-10-01T09:18:28.715Z,0.2
2022-10-01T09:19:31.775Z,0.8
2022-10-01T09:20:34.320Z,0.62
2022-10-01T09:21:36.470Z,0.49
2022-10-01T09:22:38.115Z,0.22
2022-10-01T09:23:41.354Z,0.78
2022-10-01T09:24:43.165Z,1.66
2022-10-01T09:25:45.796Z,0.87
2022-10-01T09:26:50.299Z,0.47
2022-10-01T09:27:52.474Z,1.01
2022-10-01T09:28:55.595Z,0.45
2022-10-01T09:29:58.254Z,0.91
2022-10-01T09:31:00.336Z,0.9
2022-10-01T09:32:02.141Z,0.66
2022-10-01T09:33:04.235Z,1.21
2022-10-01T09:34:06.256Z,0.85
2022-10-01T09:35:08.165Z,0.43
2022-10-01T09:36:10.235Z,0.7
2022-10-01T09:37:11.894Z,1.7
2022-10-01T09:38:14.239Z,0.9
2022-10-01T09:39:16.434Z,1.06
2022-10-01T09:40:18.394Z,0.87
2022-10-01T09:41:19.843Z,1.18
2022-10-01T09:42:22.190Z,0.64
2022-10-01T09:43:24.414Z,0.22
2022-10-01T09:44:26.225Z,0.77
2022-10-01T09:45:28.114Z,0.17
2022-10-01T09:46:30.035Z,0.38
2022-10-01T09:47:32.005Z,0.8
2022-10-01T09:48:33.788Z,0.58
2022-10-01T09:49:35.915Z,0.29
2022-10-01T09:50:38.078Z,0.4
2022-10-01T09:51:40.768Z,0.09
2022-10-01T09:52:41.955Z,0.09
2022-10-01T09:53:43.998Z,0
2022-10-01T09:54:46.417Z,0.08
2022-10-01T09:55:48.008Z,0
2022-10-01T09:56:50.119Z,0.72
2022-10-01T09:57:51.919Z,0.27
2022-10-01T09:58:54.115Z,0.6
2022-10-01T09:59:55.917Z,0.81
2022-10-01T10:00:58.388Z,0.46
2022-10-01T10:02:00.070Z,0.89
2022-10-01T10:03:02.347Z,0.22
2022-10-01T10:04:04.467Z,0.49
2022-10-01T10:05:06.302Z,0.75
2022-10-01T10:06:08.254Z,0.18
2022-10-01T10:07:11.324Z,0.37
2022-10-01T10:08:13.135Z,1.15
2022-10-01T10:09:14.863Z,0.66
2022-10-01T10:10:17.252Z,0.27
2022-10-01T10:11:19.335Z,0.64
2022-10-01T10:12:21.234Z,0.22
2022-10-01T10:13:23.320Z,0.43
2022-10-01T10:14:25.297Z,0.26
2022-10-01T10:15:27.280Z,0.62
2022-10-01T10:16:29.076Z,0.37
2022-10-01T10:17:31.162Z,0.41
2022-10-01T10:18:33.235Z,0.88
2022-10-01T10:19:35.251Z,0.82
2022-10-01T10:20:37.361Z,1.25
2022-10-01T10:21:38.959Z,1.55
2022-10-01T10:22:40.994Z,1.61
2022-10-01T10:23:43.435Z,0.98
2022-10-01T10:24:45.503Z,0.9
2022-10-01T10:25:47.534Z,0.67
2022-10-01T10:26:48.991Z,0.39
2022-10-01T10:27:51.149Z,0.18
2022-10-01T10:28:53.402Z,0.36
2022-10-01T10:29:55.214Z,0.08
2022-10-01T10:30:57.235Z,1.21
2022-10-01T10:31:59.038Z,0.55
2022-10-01T10:33:03.914Z,0.11
2022-10-01T10:34:06.475Z,0.64
2022-10-01T10:35:08.355Z,0.89
2022-10-01T10:36:09.975Z,0.99
2022-10-01T10:37:12.234Z,0.89
2022-10-01T10:38:14.819Z,0.55
2022-10-01T10:39:17.592Z,0.75
2022-10-01T10:40:20.187Z,0.95
2022-10-01T10:41:22.291Z,2.65
2022-10-01T10:42:24.514Z,1.3
2022-10-01T10:43:26.386Z,0.86
2022-10-01T10:44:28.121Z,0.76
2022-10-01T10:45:29.978Z,0.79
2022-10-01T10:46:32.276Z,1.59
2022-10-01T10:47:34.229Z,0.43
2022-10-01T10:48:36.042Z,1.16
2022-10-01T10:49:38.137Z,0.81
2022-10-01T10:50:40.222Z,1.31
2022-10-01T10:51:42.115Z,0.69
2022-10-01T10:52:45.770Z,0.4
2022-10-01T10:53:46.546Z,0.57
2022-10-01T10:54:49.157Z,1.73
2022-10-01T10:55:51.039Z,0.95
2022-10-01T10:56:53.635Z,0.37
2022-10-01T10:57:57.806Z,1.13
2022-10-01T10:58:58.414Z,0.41
2022-10-01T11:00:00.008Z,0.2
2022-10-01T11:01:02.281Z,0.6
2022-10-01T11:02:04.618Z,0.37
2022-10-01T11:03:06.575Z,0.28
2022-10-01T11:04:08.015Z,0.32
2022-10-01T11:05:10.135Z,0.14
2022-10-01T11:06:11.972Z,0.48
2022-10-01T11:07:14.426Z,0
2022-10-01T11:08:17.850Z,0.46
2022-10-01T11:09:19.519Z,0.53
2022-10-01T11:10:21.562Z,0.48
2022-10-01T11:11:24.235Z,0.43
2022-10-01T11:12:25.918Z,0.73
2022-10-01T11:13:28.094Z,1.22
2022-10-01T11:14:30.468Z,1.53
2022-10-01T11:15:32.449Z,1.74
2022-10-01T11:16:34.526Z,1.57
2022-10-01T11:17:35.914Z,1.4
2022-10-01T11:18:38.135Z,0.81
2022-10-01T11:19:40.333Z,1.06
2022-10-01T11:20:42.215Z,1.3
2022-10-01T11:21:43.942Z,0.47
2022-10-01T11:22:46.070Z,1.01
2022-10-01T11:23:48.179Z,1.42
2022-10-01T11:24:50.181Z,2.2
2022-10-01T11:25:52.215Z,1.52
2022-10-01T11:26:54.305Z,1.6
2022-10-01T11:27:56.604Z,2.14
2022-10-01T11:28:59.055Z,0.84
2022-10-01T11:30:01.355Z,1.13
2022-10-01T11:31:03.351Z,2.64
2022-10-01T11:32:05.594Z,2.5
2022-10-01T11:33:08.137Z,2.46
2022-10-01T11:34:10.855Z,2.79
2022-10-01T11:35:13.220Z,1.67
2022-10-01T11:36:15.525Z,1.84
2022-10-01T11:37:18.494Z,2.14
2022-10-01T11:38:20.294Z,2.5
2022-10-01T11:39:22.335Z,2.94
2022-10-01T11:40:24.712Z,2.82
2022-10-01T11:41:27.154Z,2.46
2022-10-01T11:42:29.180Z,1.7
2022-10-01T11:43:31.100Z,2.89
2022-10-01T11:44:33.015Z,1.57
2022-10-01T11:45:35.105Z,2.01
2022-10-01T11:46:38.011Z,2.09
2022-10-01T11:47:39.167Z,2.5
2022-10-01T11:48:41.234Z,2.12
2022-10-01T11:49:43.676Z,2.15
2022-10-01T11:50:46.002Z,2.15
2022-10-01T11:51:48.595Z,1.6
2022-10-01T11:52:51.215Z,0.78
2022-10-01T11:53:53.141Z,1.98
2022-10-01T11:54:56.289Z,1.91
2022-10-01T11:55:57.275Z,3.12
2022-10-01T11:56:59.596Z,1.49
2022-10-01T11:58:02.334Z,2.28
2022-10-01T11:59:04.634Z,4.16
2022-10-01T12:00:07.378Z,3.62
2022-10-01T12:01:09.234Z,2.17
2022-10-01T12:02:11.381Z,1.6
2022-10-01T12:03:13.022Z,2.32
2022-10-01T12:04:15.190Z,1.17
2022-10-01T12:05:17.400Z,1.73
2022-10-01T12:06:23.234Z,1.19
2022-10-01T12:07:21.270Z,3.04
2022-10-01T12:08:23.122Z,2.18
2022-10-01T12:09:25.215Z,2.61
2022-10-01T12:10:27.334Z,2.86
2022-10-01T12:11:29.319Z,1.45
2022-10-01T12:12:31.242Z,2.1
2022-10-01T12:13:33.230Z,2.65
2022-10-01T12:14:35.035Z,2.27
2022-10-01T12:15:37.146Z,3.24
2022-10-01T12:16:39.676Z,2.94
2022-10-01T12:17:41.218Z,1.89
2022-10-01T12:18:43.514Z,3.02
2022-10-01T12:19:45.162Z,2.41
2022-10-01T12:20:47.295Z,2.35
2022-10-01T12:21:49.460Z,1.86
2022-10-01T12:22:51.221Z,1.19
2022-10-01T12:23:53.156Z,1.7
2022-10-01T12:24:55.235Z,2.17
2022-10-01T12:25:56.935Z,2.8
2022-10-01T12:26:59.126Z,1.72
2022-10-01T12:28:01.226Z,2.32
2022-10-01T12:29:03.134Z,2.64
2022-10-01T12:30:04.967Z,2.4
2022-10-01T12:31:07.074Z,2.39
2022-10-01T12:32:09.337Z,2.38
2022-10-01T12:33:11.360Z,2.18
2022-10-01T12:34:13.115Z,1.39
2022-10-01T12:35:15.114Z,3.4
2022-10-01T12:36:17.056Z,2.2
2022-10-01T12:37:18.935Z,2.47
2022-10-01T12:38:21.301Z,2.39
2022-10-01T12:39:23.434Z,1.93
2022-10-01T12:40:25.515Z,1.77
2022-10-01T12:41:27.135Z,2.17
2022-10-01T12:42:29.154Z,2.13
2022-10-01T12:43:31.514Z,1.91
2022-10-01T12:44:33.604Z,1.29
2022-10-01T12:45:34.872Z,0.87
2022-10-01T12:46:37.373Z,1.48
2022-10-01T12:47:38.990Z,1.37
2022-10-01T12:48:41.226Z,2
2022-10-01T12:49:43.195Z,1.82
2022-10-01T12:50:45.349Z,1.33
2022-10-01T12:51:47.262Z,1.31
2022-10-01T12:52:49.197Z,0.93
2022-10-01T12:53:51.395Z,1.39
2022-10-01T12:54:53.718Z,1.96
2022-10-01T12:55:56.174Z,1.69
2022-10-01T12:56:58.269Z,0.96
2022-10-01T12:58:00.324Z,1.23
2022-10-01T12:59:02.074Z,1.17
2022-10-01T13:00:04.275Z,1.22
2022-10-01T13:01:06.308Z,1.06
2022-10-01T13:02:08.233Z,0.25
2022-10-01T13:03:10.062Z,2.16
2022-10-01T13:04:11.938Z,1.83
2022-10-01T13:05:14.514Z,1.1
2022-10-01T13:06:16.577Z,1.27
2022-10-01T13:07:19.354Z,1.73
2022-10-01T13:08:21.431Z,2.53
2022-10-01T13:09:23.635Z,4.17
2022-10-01T13:10:26.242Z,2.94
2022-10-01T13:11:28.234Z,3.15
2022-10-01T13:12:30.156Z,2.79
2022-10-01T13:13:32.215Z,2.35
2022-10-01T13:14:34.194Z,3.03
2022-10-01T13:15:36.894Z,1.42
2022-10-01T13:16:39.614Z,2.71
2022-10-01T13:17:41.356Z,2.83
2022-10-01T13:18:43.296Z,2.74
2022-10-01T13:19:45.197Z,2.94
2022-10-01T13:20:46.984Z,1.42
2022-10-01T13:21:49.173Z,1.82
2022-10-01T13:22:51.214Z,2.12
2022-10-01T13:23:53.294Z,2.66
2022-10-01T13:24:55.133Z,2.62
2022-10-01T13:25:57.040Z,2.17
2022-10-01T13:26:58.948Z,2.33
2022-10-01T13:28:01.006Z,2.52
2022-10-01T13:29:03.382Z,3.08
2022-10-01T13:30:05.306Z,2.32
2022-10-01T13:31:07.128Z,1.44
2022-10-01T13:32:08.994Z,1.88
2022-10-01T13:33:11.215Z,2.33
2022-10-01T13:34:13.395Z,1.61
2022-10-01T13:35:15.462Z,1.71
2022-10-01T13:36:17.162Z,1.74
2022-10-01T13:37:19.114Z,1.95
2022-10-01T13:38:21.194Z,1.83
2022-10-01T13:39:23.251Z,1.65
2022-10-01T13:40:25.394Z,1.74
2022-10-01T13:41:28.235Z,1.09
2022-10-01T13:42:30.636Z,1.08
2022-10-01T13:43:32.083Z,1.55
2022-10-01T13:44:34.874Z,2.32
2022-10-01T13:45:37.314Z,1.89
2022-10-01T13:46:39.508Z,0.94
2022-10-01T13:47:41.035Z,1.28
2022-10-01T13:48:43.016Z,1.78
2022-10-01T13:49:45.295Z,1.22
2022-10-01T13:50:47.518Z,2.44
2022-10-01T13:51:49.276Z,1.99
2022-10-01T13:52:51.394Z,2.15
2022-10-01T13:53:53.371Z,1.86
2022-10-01T13:54:55.154Z,1.65
2022-10-01T13:55:57.095Z,1.47
2022-10-01T13:56:59.328Z,1.28
2022-10-01T13:58:01.295Z,1.75
2022-10-01T13:59:03.295Z,1.58
2022-10-01T14:00:05.176Z,1.64
2022-10-01T14:01:09.249Z,1.3
2022-10-01T14:02:09.416Z,1.31
2022-10-01T14:03:11.361Z,1.37
2022-10-01T14:04:13.374Z,1.18
2022-10-01T14:05:15.565Z,0.73
2022-10-01T14:06:18.238Z,2.14
2022-10-01T14:07:20.274Z,1.26
2022-10-01T14:08:22.100Z,1.78
2022-10-01T14:09:24.144Z,1.56
2022-10-01T14:10:26.362Z,1.3
2022-10-01T14:11:28.301Z,1.22
2022-10-01T14:12:30.400Z,1.36
2022-10-01T14:13:32.074Z,2.26
2022-10-01T14:14:34.954Z,1.49
2022-10-01T14:15:37.498Z,2.02
2022-10-01T14:16:39.334Z,1.5
2022-10-01T14:17:41.135Z,0.68
2022-10-01T14:18:43.294Z,1.96
2022-10-01T14:19:45.724Z,1.91
2022-10-01T14:20:48.614Z,0.97
2022-10-01T14:21:50.438Z,1.55
2022-10-01T14:22:52.176Z,1.37
2022-10-01T14:23:54.334Z,1.45